PWSweather.com
Personal Weather Stations
Station Observations
NYERIN
South Erin, Erin, NY 14838-9545

South ErinErin, NY 14838-9545

Lat: 42.150605, Lon: -76.654038

Elevation: 1663

Station Type: Davis VP Pro II

http://southerin-ny.org/wx.php

Latest ConditionsUpdated 4:02:01 AM EDT Monday, Sep 22, 2014
Currently Today's Max Today's Min Today's Average
Temperature 53.8°F12.1°C 54.4°F12.4°C 51.3°F10.7°C 53.2°F11.8°C
Dew Point 53.8°F12.1°C 54.1°F12.3°C 51.3°F10.7°C 53.0°F11.7°C
Winds 3.5 mph NW5.6 kmh NW 5.1 mph NW8.2 kmh NW - 1.7 mph 2.7 kmh
Wind Gusts 5.0 mph8.0 kmh 10.0 mph16.1 kmh - -
Humidity 100% 100% 97% 99%
Pressure 29.69 in1005.4 mb 29.69 in1005.4 mb 29.65 in1004.1 mb -
Precipitation - 0.01 in0.3 mm - -
Hour Temp Dew Point Humidity Winds Wind Gusts Pressure Precip Precip Rate Daily Precip Total
04:02 AM 53.8°F12.1°C 53.8°F12.1°C 100% 3.5 mph NW5.6 kmh NW 5.0 mph8.0 kmh 29.69 in1005.4 mb 0.00 in0.0 mm 0.00 in/hr0.0 mm/hr 0.01 in0.3 mm
03:52 AM 53.8°F12.1°C 53.8°F12.1°C 100% 0.5 mph SSW0.8 kmh SSW 4.0 mph6.4 kmh 29.69 in1005.4 mb 0.00 in0.0 mm 0.00 in/hr0.0 mm/hr 0.01 in0.3 mm
03:42 AM 54.1°F12.3°C 54.1°F12.3°C 100% 1.9 mph WSW3.1 kmh WSW 4.0 mph6.4 kmh 29.68 in1005.1 mb 0.01 in0.3 mm 0.06 in/hr1.5 mm/hr 0.01 in0.3 mm
03:32 AM 54.2°F12.3°C 53.9°F12.2°C 99% 1.8 mph WSW2.9 kmh WSW 10.0 mph16.1 kmh 29.67 in1004.7 mb 0.00 in0.0 mm 0.00 in/hr0.0 mm/hr 0.00 in0.0 mm
03:22 AM 54.2°F12.3°C 53.6°F12.0°C 98% 4.9 mph W7.9 kmh W 9.0 mph14.5 kmh 29.67 in1004.7 mb 0.00 in0.0 mm 0.00 in/hr0.0 mm/hr 0.00 in0.0 mm
03:12 AM 54.1°F12.3°C 53.5°F11.9°C 98% 5.1 mph NW8.2 kmh NW 7.0 mph11.3 kmh 29.67 in1004.7 mb 0.00 in0.0 mm 0.00 in/hr0.0 mm/hr 0.00 in0.0 mm
03:02 AM 54.4°F12.4°C 53.6°F12.0°C 97% 4.0 mph W6.4 kmh W 7.0 mph11.3 kmh 29.67 in1004.7 mb 0.00 in0.0 mm 0.00 in/hr0.0 mm/hr 0.00 in0.0 mm
02:52 AM 54.2°F12.3°C 53.6°F12.0°C 98% 3.8 mph W6.1 kmh W 6.0 mph9.7 kmh 29.67 in1004.7 mb 0.00 in0.0 mm 0.00 in/hr0.0 mm/hr 0.00 in0.0 mm
02:42 AM 53.9°F12.2°C 53.6°F12.0°C 99% 1.9 mph SW3.1 kmh SW 8.0 mph12.9 kmh 29.67 in1004.7 mb 0.00 in0.0 mm 0.00 in/hr0.0 mm/hr 0.00 in0.0 mm
02:32 AM 53.9°F12.2°C 53.6°F12.0°C 99% Calm Calm -- 29.67 in1004.7 mb 0.00 in0.0 mm 0.00 in/hr0.0 mm/hr 0.00 in0.0 mm
02:22 AM 53.8°F12.1°C 53.5°F11.9°C 99% 3.3 mph W5.3 kmh W 4.0 mph6.4 kmh 29.67 in1004.7 mb 0.00 in0.0 mm 0.00 in/hr0.0 mm/hr 0.00 in0.0 mm
02:12 AM 53.2°F11.8°C 53.2°F11.8°C 100% 0.4 mph W0.6 kmh W 3.0 mph4.8 kmh 29.67 in1004.7 mb 0.00 in0.0 mm 0.00 in/hr0.0 mm/hr 0.00 in0.0 mm
02:02 AM 52.9°F11.6°C 52.9°F11.6°C 100% 0.3 mph WNW0.5 kmh WNW 3.0 mph4.8 kmh 29.67 in1004.7 mb 0.00 in0.0 mm 0.00 in/hr0.0 mm/hr 0.00 in0.0 mm
01:52 AM 52.0°F11.1°C 52.0°F11.1°C 100% 2.8 mph WSW4.5 kmh WSW 9.0 mph14.5 kmh 29.67 in1004.7 mb 0.00 in0.0 mm 0.00 in/hr0.0 mm/hr 0.00 in0.0 mm
01:42 AM 51.9°F11.1°C 51.9°F11.1°C 100% 2.1 mph W3.4 kmh W 4.0 mph6.4 kmh 29.67 in1004.7 mb 0.00 in0.0 mm 0.00 in/hr0.0 mm/hr 0.00 in0.0 mm
01:32 AM 51.6°F10.9°C 51.6°F10.9°C 100% 1.2 mph WSW1.9 kmh WSW 7.0 mph11.3 kmh 29.66 in1004.4 mb 0.00 in0.0 mm 0.00 in/hr0.0 mm/hr 0.00 in0.0 mm
01:22 AM 51.3°F10.7°C 51.3°F10.7°C 100% 1.2 mph WNW1.9 kmh WNW 2.0 mph3.2 kmh 29.66 in1004.4 mb 0.00 in0.0 mm 0.00 in/hr0.0 mm/hr 0.00 in0.0 mm
01:12 AM 51.3°F10.7°C 51.3°F10.7°C 100% 0.1 mph WNW0.2 kmh WNW -- 29.66 in1004.4 mb 0.00 in0.0 mm 0.00 in/hr0.0 mm/hr 0.00 in0.0 mm
01:02 AM 51.8°F11.0°C 51.8°F11.0°C 100% Calm Calm -- 29.66 in1004.4 mb 0.00 in0.0 mm 0.00 in/hr0.0 mm/hr 0.00 in0.0 mm
12:52 AM 52.7°F11.5°C 52.5°F11.4°C 99% Calm Calm -- 29.65 in1004.1 mb 0.00 in0.0 mm 0.00 in/hr0.0 mm/hr 0.00 in0.0 mm
12:42 AM 52.9°F11.6°C 52.9°F11.6°C 100% Calm Calm 1.0 mph1.6 kmh 29.65 in1004.1 mb 0.00 in0.0 mm 0.00 in/hr0.0 mm/hr 0.00 in0.0 mm
12:32 AM 53.1°F11.7°C 53.1°F11.7°C 100% 0.1 mph WNW0.2 kmh WNW 1.0 mph1.6 kmh 29.65 in1004.1 mb 0.00 in0.0 mm 0.00 in/hr0.0 mm/hr 0.00 in0.0 mm
12:22 AM 53.5°F11.9°C 53.5°F11.9°C 100% 0.8 mph WNW1.3 kmh WNW 1.0 mph1.6 kmh 29.66 in1004.4 mb 0.00 in0.0 mm 0.00 in/hr0.0 mm/hr 0.00 in0.0 mm
12:12 AM 53.8°F12.1°C 53.8°F12.1°C 100% 0.5 mph W0.8 kmh W 2.0 mph3.2 kmh 29.65 in1004.1 mb 0.00 in0.0 mm 0.00 in/hr0.0 mm/hr 0.00 in0.0 mm
12:02 AM 53.6°F12.0°C 53.6°F12.0°C 100% 2.0 mph WNW3.2 kmh WNW 8.0 mph12.9 kmh 29.65 in1004.1 mb 0.00 in0.0 mm 0.00 in/hr0.0 mm/hr 0.00 in0.0 mm